Zacatecas / Zac. (la Bufa, Mexico

6:54 AM CST on December 08, 2016 (GMT -0600)
La Isabelica | | Change Station

Elev 8130 ft 22.76 °N, 102.57 °W | Updated 8 seconds ago

Clear
Clear
51.3 °F
Feels Like 51.3 °F
N
4.5
Wind Variable Wind from West
Gusts 4.9 mph

Today
High -- | Low -- °F
--% Chance of Precip.
Yesterday
High -- | Low -- °F
Precip. -- in
Pressure 30.28 in
Visibility 10.0 miles
Clouds Few 20000 ft
Dew Point 21 °F
Humidity 30%
Rainfall 0.00 in
Snow Depth Not available.
7:19 AM 6:05 PM
Waxing Gibbous, 63% visible
METAR MMZC 081140Z 20010KT 10SM FEW200 03/M07 A3028 RMK 8/001
Pressure 30.28 in
Visibility 10.0 miles
Clouds Few 20000 ft
Dew Point 21 °F
Humidity 30%
Rainfall 0.00 in
Snow Depth Not available.
7:19 AM 6:05 PM
Waxing Gibbous, 63% visible
METAR MMZC 081140Z 20010KT 10SM FEW200 03/M07 A3028 RMK 8/001

10-Day Weather Forecast

No radar image for this location.
×

Almanac

Astronomy

Dec. 08, 2016 Rise Set
Actual Time
Civil Twilight
Nautical Twilight
Astronomical Twilight
Moon
Length of Visible Light
Length of Day
Tomorrow will be .
, % of the Moon is Illuminated

Today's Extremes

Country Highs Country Lows

Community

WunderPhotos

Upload Photos

1,956,267 photos uploaded!

WunderBlog® & News

Nearby

Air Quality

  Air Quality AQ Index Pollutant
Not available.

Snow Depth

Station Depth Elevation

Earthquake Activity

City Distance Mag. Time & Date
Minimum magnitude displayed is 2.5.

Coastal Water Temperatures

Place Temperature

Stations

Nearby Weather Stations

Station Location Temp. Windchill Dew Point Humidity Wind Precip. Elev Updated Type